Sedna Desgagnes — CYQE — position and weather

sailwx.info

Track history (hours):
 
Tides and Currents Weather Stations Pressure Air Temp Water Temp Dewpoint Dewpoint Depression Visibility Wind Speed Wind Dir Waves Ship Positions

Sedna Desgagnes

Last reported at 2016-Oct-01 03:26 UTC. Time now 2016-Oct-01 18:57 UTC.
Position N 51°18' W 056°57'.

Length 139 m; draft 8.2 m.

Type: Ship. MMSI: 316015251.

Date/timePositionNaut miles runAvg speedWind from/ knotsBaromVisibWave heightAir tempDewpointWater temp
2016-Oct-01 03:26N 51°18' W 056°57'3913.5
2016-Oct-01 00:33N 50°53' W 057°45'  
2016-Sep-24 10:28N 46°19' W 072°33'1111.6
2016-Sep-24 09:30N 46°13' W 072°48'55 9.3
2016-Sep-24 03:32N 45°26' W 073°30'4 3.6
2016-Sep-24 02:33N 45°24' W 073°34'7 6.5
2016-Sep-24 01:34N 45°24' W 073°43'2 2.1
2016-Sep-24 00:33N 45°25' W 073°41'4 0.7
2016-Sep-23 19:05N 45°24' W 073°35'0 0.0
2016-Sep-23 17:23N 45°24' W 073°35'0 0.0
2016-Sep-23 16:29N 45°24' W 073°35'0 0.0
2016-Sep-23 15:29N 45°24' W 073°35'0 0.0
2016-Sep-23 13:29N 45°24' W 073°35'0 0.0
2016-Sep-23 09:29N 45°24' W 073°35'0 0.0
2016-Sep-23 06:29N 45°24' W 073°35'0 0.0
2016-Sep-23 04:29N 45°24' W 073°35'0 0.0
2016-Sep-23 03:29N 45°24' W 073°35'0 0.0
2016-Sep-23 02:29N 45°24' W 073°35'0 0.0
2016-Sep-23 01:23N 45°24' W 073°35'0 0.0
2016-Sep-23 00:30N 45°24' W 073°35'0 0.0
2016-Sep-22 23:30N 45°24' W 073°35'6 2.0
2016-Sep-22 20:32N 45°29' W 073°31'  
Track history (hours):
 
Tides and Currents Weather Stations Pressure Air Temp Water Temp Dewpoint Dewpoint Depression Visibility Wind Speed Wind Dir Waves Ship Positions

Sedna Desgagnes

Last reported at 2016-Oct-01 03:26 UTC. Time now 2016-Oct-01 18:58 UTC.
Position N 51°18' W 056°57'.

Length 139 m; draft 8.2 m.

Type: Ship. MMSI: 316015251.

Date/timePositionNaut miles runAvg speedWind from/ knotsBaromVisibWave heightAir tempDewpointWater temp
2016-Oct-01 03:26N 51°18' W 056°57'3913.5
2016-Oct-01 00:33N 50°53' W 057°45'  
2016-Sep-24 10:28N 46°19' W 072°33'1111.6
2016-Sep-24 09:30N 46°13' W 072°48'55 9.3
2016-Sep-24 03:32N 45°26' W 073°30'4 3.6
2016-Sep-24 02:33N 45°24' W 073°34'7 6.5
2016-Sep-24 01:34N 45°24' W 073°43'2 2.1
2016-Sep-24 00:33N 45°25' W 073°41'4 0.7
2016-Sep-23 19:05N 45°24' W 073°35'0 0.0
2016-Sep-23 17:23N 45°24' W 073°35'0 0.0
2016-Sep-23 16:29N 45°24' W 073°35'0 0.0
2016-Sep-23 15:29N 45°24' W 073°35'0 0.0
2016-Sep-23 13:29N 45°24' W 073°35'0 0.0
2016-Sep-23 09:29N 45°24' W 073°35'0 0.0
2016-Sep-23 06:29N 45°24' W 073°35'0 0.0
2016-Sep-23 04:29N 45°24' W 073°35'0 0.0
2016-Sep-23 03:29N 45°24' W 073°35'0 0.0
2016-Sep-23 02:29N 45°24' W 073°35'0 0.0
2016-Sep-23 01:23N 45°24' W 073°35'0 0.0
2016-Sep-23 00:30N 45°24' W 073°35'0 0.0
2016-Sep-22 23:30N 45°24' W 073°35'6 2.0
2016-Sep-22 20:32N 45°29' W 073°31'  

Dump ship's entire track history